Time;durP1;ratioP1;P1;durP2;ratioP2;P2;SDS_P1;SDS_P2;PMS_P1;PMS_P2;Temp;Humidity;BMP_temperature;BMP_pressure;BME280_temperature;BME280_humidity;BME280_pressure;Samples;Min_cycle;Max_cycle;Signal;HPM_P1;HPM_P2
2023/05/08 00:00:38;;;;;;;3.67;2.60;;;;;;;14.60;71.57;64495.16;5051709;28;20631;-58
2023/05/08 00:03:03;;;;;;;3.80;2.80;;;;;;;14.39;72.59;64469.00;5051623;28;20241;-56
2023/05/08 00:05:29;;;;;;;3.72;2.40;;;;;;;14.56;72.03;64485.16;5051654;28;20677;-58
2023/05/08 00:08:00;;;;;;;4.45;2.25;;;;;;;14.49;72.12;64480.53;5051292;28;20578;-55
2023/05/08 00:10:28;;;;;;;3.53;2.58;;;;;;;14.50;72.50;64481.66;5051601;28;20698;-57
2023/05/08 00:12:55;;;;;;;4.30;2.40;;;;;;;14.45;72.53;64476.13;5051551;28;20184;-55
2023/05/08 00:15:20;;;;;;;5.18;2.08;;;;;;;14.32;72.06;64463.84;5033537;28;20191;-59
2023/05/08 00:17:45;;;;;;;2.55;1.58;;;;;;;14.37;71.95;64467.34;5051477;28;20185;-59
2023/05/08 00:20:11;;;;;;;3.22;1.95;;;;;;;14.38;71.20;64471.00;5051450;28;20200;-56
2023/05/08 00:22:37;;;;;;;4.68;2.10;;;;;;;14.50;71.10;64481.66;5051113;28;20647;-55
2023/05/08 00:25:05;;;;;;;7.00;1.98;;;;;;;14.47;70.68;64480.88;5051219;28;20304;-58
2023/05/08 00:27:31;;;;;;;3.85;1.80;;;;;;;14.41;71.37;64471.19;5051449;28;20231;-57
2023/05/08 00:29:57;;;;;;;2.30;2.08;;;;;;;14.38;71.04;64471.00;5051485;28;20243;-56
2023/05/08 00:32:23;;;;;;;4.20;2.30;;;;;;;14.30;72.49;64462.22;5051219;28;20178;-55
2023/05/08 00:34:49;;;;;;;5.45;2.28;;;;;;;14.27;72.34;64458.88;5051177;28;20205;-56
2023/05/08 00:37:14;;;;;;;2.63;1.45;;;;;;;14.29;71.97;64459.13;5051025;28;20177;-57
2023/05/08 00:39:40;;;;;;;1.92;1.73;;;;;;;14.32;71.27;64461.31;5050891;28;20227;-59
2023/05/08 00:42:05;;;;;;;2.65;1.73;;;;;;;14.37;71.16;64466.78;5050818;28;20224;-57
2023/05/08 00:44:31;;;;;;;1.88;1.77;;;;;;;14.48;70.45;64479.44;5051028;28;20205;-55
2023/05/08 00:46:56;;;;;;;3.95;1.55;;;;;;;14.37;70.63;64467.34;5051125;28;20185;-55
2023/05/08 00:49:22;;;;;;;2.85;1.92;;;;;;;14.30;70.62;64459.66;5050916;28;20209;-55
2023/05/08 00:51:51;;;;;;;3.35;1.80;;;;;;;14.15;70.98;64445.69;5032819;28;20210;-56
2023/05/08 00:54:18;;;;;;;2.60;2.25;;;;;;;14.16;72.82;64447.34;5050798;28;20643;-55
2023/05/08 00:56:44;;;;;;;4.07;1.90;;;;;;;14.10;72.60;64440.75;5051124;28;20188;-58
2023/05/08 00:59:12;;;;;;;2.78;1.88;;;;;;;14.24;71.31;64456.13;5050686;28;20245;-58
2023/05/08 01:01:39;;;;;;;2.60;1.90;;;;;;;14.14;71.92;64444.59;5050534;28;20193;-58
2023/05/08 01:04:06;;;;;;;4.13;1.95;;;;;;;14.16;72.02;64446.78;5050848;28;20699;-59
2023/05/08 01:06:33;;;;;;;3.03;2.10;;;;;;;14.21;71.90;64452.28;5050501;28;20209;-55
2023/05/08 01:08:59;;;;;;;2.72;2.03;;;;;;;13.95;72.54;64421.19;5050740;28;20209;-56
2023/05/08 01:11:27;;;;;;;2.65;1.83;;;;;;;14.00;72.66;64427.22;5050465;28;20259;-58
2023/05/08 01:14:14;;;;;;;2.30;2.10;;;;;;;13.94;73.15;64420.63;5032539;28;20209;-59
2023/05/08 01:17:01;;;;;;;2.78;1.75;;;;;;;13.95;73.43;64423.72;5050463;28;20235;-56
2023/05/08 01:20:01;;;;;;;3.35;2.10;;;;;;;13.92;74.70;64420.97;5050443;28;20205;-56
2023/05/08 01:22:52;;;;;;;1.90;1.80;;;;;;;14.01;73.97;64430.31;5051202;28;20605;-59
2023/05/08 01:25:50;;;;;;;3.28;1.88;;;;;;;14.03;74.04;64432.50;5050650;28;20698;-59
2023/05/08 01:28:27;;;;;;;3.25;1.80;;;;;;;14.01;74.06;64427.78;5050210;28;20213;-60
2023/05/08 01:31:06;;;;;;;7.18;2.67;;;;;;;14.07;74.15;64436.91;5050306;28;20213;-56
2023/05/08 01:34:03;;;;;;;2.67;2.13;;;;;;;13.97;73.69;64426.47;5050471;28;20205;-57
2023/05/08 01:36:34;;;;;;;2.45;1.83;;;;;;;14.00;74.43;64426.69;5050285;28;20178;-59
2023/05/08 01:39:13;;;;;;;1.90;1.77;;;;;;;14.01;74.21;64430.31;5050368;28;20214;-59
2023/05/08 01:41:41;;;;;;;6.55;2.65;;;;;;;14.06;74.07;64435.78;5050083;28;20181;-54
2023/05/08 01:44:16;;;;;;;2.42;1.65;;;;;;;13.95;75.18;64421.75;5050135;28;20209;-55
2023/05/08 01:46:46;;;;;;;2.90;2.60;;;;;;;13.94;75.63;64422.63;5050171;28;20196;-56
2023/05/08 01:49:21;;;;;;;3.70;1.95;;;;;;;13.85;76.50;64410.22;5050262;28;20359;-55
2023/05/08 01:51:56;;;;;;;2.42;2.17;;;;;;;13.91;76.34;64416.81;5049986;28;20205;-57
2023/05/08 01:54:25;;;;;;;4.65;2.55;;;;;;;13.98;76.15;64424.47;5050201;28;20714;-59
2023/05/08 01:56:54;;;;;;;2.47;2.22;;;;;;;13.98;76.67;64425.03;5051713;28;20198;-56
2023/05/08 01:59:22;;;;;;;4.68;2.58;;;;;;;13.79;78.14;64406.72;5053436;28;20703;-56
2023/05/08 02:01:51;;;;;;;3.80;2.38;;;;;;;13.79;78.45;64406.72;5053464;28;20591;-55
2023/05/08 02:04:18;;;;;;;2.90;2.60;;;;;;;13.78;79.81;64405.03;5053367;28;20334;-55
2023/05/08 02:06:44;;;;;;;4.88;3.35;;;;;;;13.84;78.90;64411.63;5053481;28;20533;-55
2023/05/08 02:09:11;;;;;;;7.30;2.80;;;;;;;13.73;79.85;64397.03;5053111;28;20686;-56
2023/05/08 02:11:38;;;;;;;3.92;2.60;;;;;;;13.75;79.19;64402.31;5053156;28;20614;-55
2023/05/08 02:14:05;;;;;;;3.38;2.92;;;;;;;13.79;79.46;64403.63;5053378;28;20208;-55
2023/05/08 02:16:32;;;;;;;5.22;3.28;;;;;;;13.83;79.72;64408.00;5053090;28;20194;-55
2023/05/08 02:19:00;;;;;;;3.58;3.10;;;;;;;13.81;79.54;64405.81;5035162;28;20267;-56
2023/05/08 02:21:26;;;;;;;4.43;3.08;;;;;;;13.83;79.50;64411.09;5053047;28;20173;-58
2023/05/08 02:23:55;;;;;;;4.50;3.28;;;;;;;13.79;80.65;64403.63;5053068;28;20299;-56
2023/05/08 02:26:22;;;;;;;5.80;3.45;;;;;;;13.71;80.91;64395.41;5052972;28;20178;-56
2023/05/08 02:28:50;;;;;;;7.22;4.68;;;;;;;13.66;82.03;64392.44;5052925;28;20221;-56
2023/05/08 02:31:17;;;;;;;6.38;4.15;;;;;;;13.84;81.36;64409.09;5053052;28;20210;-56
2023/05/08 02:33:44;;;;;;;5.93;4.53;;;;;;;13.73;81.57;64397.03;5053141;28;20752;-56
2023/05/08 02:36:12;;;;;;;5.28;3.97;;;;;;;13.63;82.73;64386.59;5052947;28;20189;-57
2023/05/08 02:38:40;;;;;;;6.78;4.57;;;;;;;13.42;84.47;64366.63;5052984;28;20224;-59
2023/05/08 02:41:07;;;;;;;6.72;4.55;;;;;;;13.36;84.61;64360.03;5053114;28;20189;-55
2023/05/08 02:43:34;;;;;;;9.02;5.32;;;;;;;13.38;85.01;64362.25;5034927;28;20210;-55
2023/05/08 02:46:17;;;;;;;6.35;4.10;;;;;;;13.43;85.29;64364.66;5052707;28;20186;-58
2023/05/08 02:48:55;;;;;;;5.60;4.55;;;;;;;13.47;85.47;64369.03;5052781;28;20291;-58
2023/05/08 02:51:36;;;;;;;7.22;5.00;;;;;;;13.47;85.49;64369.56;5052782;28;20649;-55
2023/05/08 02:54:09;;;;;;;9.52;5.63;;;;;;;13.41;85.96;64363.00;5052366;28;20212;-57
2023/05/08 02:56:39;;;;;;;6.38;4.97;;;;;;;13.44;86.51;64366.28;5034807;28;20236;-56
2023/05/08 02:59:27;;;;;;;7.13;4.72;;;;;;;13.46;86.63;64365.41;5052561;28;20213;-56
2023/05/08 03:02:02;;;;;;;7.82;4.70;;;;;;;13.44;87.51;64366.28;5052844;28;20337;-59
2023/05/08 03:04:33;;;;;;;8.93;5.10;;;;;;;13.45;86.55;64364.84;5052764;28;20201;-60
2023/05/08 03:07:00;;;;;;;7.68;4.97;;;;;;;13.52;86.72;64373.97;5052035;28;20663;-59
2023/05/08 03:09:36;;;;;;;5.30;4.80;;;;;;;13.45;87.08;64367.38;5051565;28;20213;-58
2023/05/08 03:12:08;;;;;;;15.00;5.82;;;;;;;13.51;86.37;64372.88;5052542;28;20205;-58
2023/05/08 03:14:40;;;;;;;6.15;5.18;;;;;;;13.40;86.40;64363.88;5034352;28;20218;-56
2023/05/08 03:17:11;;;;;;;8.40;4.93;;;;;;;13.38;88.05;64364.78;5052254;28;20236;-56
2023/05/08 03:19:40;;;;;;;6.47;5.40;;;;;;;13.45;87.22;64369.91;5052647;28;20595;-59
2023/05/08 03:22:06;;;;;;;10.50;4.43;;;;;;;13.42;87.67;64361.56;5052165;28;20213;-59
2023/05/08 03:24:35;;;;;;;7.13;4.35;;;;;;;13.41;88.98;64363.00;5034386;28;20586;-56
2023/05/08 03:27:02;;;;;;;6.63;5.30;;;;;;;13.43;88.03;64365.19;5052223;28;20277;-57
2023/05/08 03:29:28;;;;;;;7.18;5.40;;;;;;;13.52;87.93;64374.53;5052284;28;20213;-56
2023/05/08 03:31:57;;;;;;;6.97;4.75;;;;;;;13.55;87.31;64377.81;5052059;28;20213;-56
2023/05/08 03:34:24;;;;;;;7.18;5.18;;;;;;;13.51;86.12;64372.88;5052132;28;20209;-57
2023/05/08 03:36:49;;;;;;;7.05;5.20;;;;;;;13.42;88.12;64363.53;5052133;28;20671;-55
2023/05/08 03:39:15;;;;;;;6.13;4.70;;;;;;;13.30;89.42;64352.91;5051971;28;20248;-60
2023/05/08 03:41:40;;;;;;;8.73;5.47;;;;;;;13.31;89.47;64349.50;5052160;28;20275;-58
2023/05/08 03:44:06;;;;;;;9.55;5.72;;;;;;;13.34;88.94;64357.84;5052001;28;20217;-57
2023/05/08 03:46:34;;;;;;;7.72;5.30;;;;;;;13.35;88.79;64358.41;5051855;28;20252;-56
2023/05/08 03:49:03;;;;;;;10.68;5.20;;;;;;;13.39;89.68;64360.81;5051848;28;20252;-57
2023/05/08 03:51:30;;;;;;;6.75;5.65;;;;;;;13.19;88.90;64338.84;5051718;28;20216;-59
2023/05/08 03:53:55;;;;;;;7.20;5.85;;;;;;;13.20;89.19;64341.94;5051992;28;20671;-56
2023/05/08 03:56:20;;;;;;;9.38;5.60;;;;;;;13.11;89.98;64332.06;5051768;28;20235;-58
2023/05/08 03:58:53;;;;;;;5.63;4.77;;;;;;;13.22;89.24;64344.69;5051489;28;20217;-56
2023/05/08 04:01:36;;;;;;;8.18;4.75;;;;;;;13.10;89.31;64326.44;5051654;28;20280;-55
2023/05/08 04:04:15;;;;;;;7.72;4.65;;;;;;;12.99;89.34;64316.34;5051425;28;20216;-56
2023/05/08 04:06:52;;;;;;;7.65;4.60;;;;;;;13.07;88.73;64325.16;5051554;28;20189;-55
2023/05/08 04:09:34;;;;;;;8.80;5.03;;;;;;;13.19;88.67;64336.31;5051597;28;20225;-57
2023/05/08 04:12:12;;;;;;;7.15;5.15;;;;;;;13.10;88.70;64328.97;5033475;28;20686;-58
2023/05/08 04:14:44;;;;;;;11.55;5.10;;;;;;;12.91;88.92;64310.63;5051569;28;20304;-59
2023/05/08 04:17:13;;;;;;;6.00;5.00;;;;;;;13.08;88.96;64326.78;5051535;28;20194;-59
2023/05/08 04:19:50;;;;;;;6.57;4.93;;;;;;;13.15;88.39;64333.94;5050716;28;20245;-59
2023/05/08 04:22:19;;;;;;;6.45;4.32;;;;;;;13.01;87.77;64321.06;5051243;28;20193;-59
2023/05/08 04:24:47;;;;;;;7.15;4.80;;;;;;;13.05;87.92;64326.00;5051070;28;20214;-56
2023/05/08 04:27:13;;;;;;;5.57;4.75;;;;;;;13.14;88.36;64333.38;5033241;28;20196;-59
2023/05/08 04:29:39;;;;;;;5.15;4.05;;;;;;;13.27;87.20;64347.63;5033306;28;20515;-59
2023/05/08 04:32:05;;;;;;;6.88;4.68;;;;;;;13.31;86.14;64351.47;5050997;28;20341;-59
2023/05/08 04:34:31;;;;;;;8.88;4.68;;;;;;;13.13;86.16;64334.25;5033121;28;20219;-58
2023/05/08 04:36:56;;;;;;;5.38;4.70;;;;;;;13.16;85.78;64337.53;5051021;28;20652;-58
2023/05/08 04:39:22;;;;;;;9.70;5.35;;;;;;;12.98;86.66;64318.31;5050844;28;20603;-58
2023/05/08 04:42:01;;;;;;;10.88;5.30;;;;;;;12.91;86.53;64310.63;5051142;28;20189;-60
2023/05/08 04:44:27;;;;;;;5.93;4.65;;;;;;;12.98;86.50;64315.25;5051013;28;20217;-59
2023/05/08 04:46:52;;;;;;;10.45;5.35;;;;;;;13.07;86.09;64328.22;5050991;28;20181;-58
2023/05/08 04:49:18;;;;;;;7.43;4.60;;;;;;;13.08;85.51;64328.75;5051239;28;20213;-63
2023/05/08 04:51:43;;;;;;;6.82;5.10;;;;;;;13.27;84.68;64347.63;5051180;28;20258;-59
2023/05/08 04:54:08;;;;;;;8.55;4.75;;;;;;;13.38;86.28;64357.19;5050606;28;20213;-55
2023/05/08 04:56:34;;;;;;;6.55;4.47;;;;;;;13.39;84.21;64363.31;5050868;28;20192;-58
2023/05/08 04:59:00;;;;;;;7.70;4.70;;;;;;;13.66;83.74;64389.91;5050917;28;20206;-57
2023/05/08 05:01:25;;;;;;;7.95;4.57;;;;;;;14.04;80.57;64431.63;5050678;28;20189;-55
2023/05/08 05:03:51;;;;;;;5.68;4.28;;;;;;;13.91;82.17;64419.34;5050641;28;20300;-55
2023/05/08 05:06:16;;;;;;;7.40;5.53;;;;;;;13.68;82.92;64394.63;5050767;28;20223;-56
2023/05/08 05:08:41;;;;;;;9.27;5.75;;;;;;;13.55;83.40;64379.81;5050549;28;20224;-56
2023/05/08 05:11:07;;;;;;;6.80;4.90;;;;;;;13.54;83.59;64376.72;5050602;28;20690;-57
2023/05/08 05:13:32;;;;;;;6.82;5.05;;;;;;;13.57;83.40;64382.56;5050867;28;20560;-56
2023/05/08 05:15:58;;;;;;;6.28;4.45;;;;;;;13.69;82.44;64395.19;5050518;28;20189;-55
2023/05/08 05:18:24;;;;;;;8.05;5.40;;;;;;;13.93;82.10;64419.00;5050534;28;20213;-58
2023/05/08 05:20:49;;;;;;;6.30;4.97;;;;;;;13.98;81.97;64424.47;5050487;28;20196;-56
2023/05/08 05:23:14;;;;;;;9.20;4.78;;;;;;;14.19;80.39;64450.09;5050363;28;20217;-56
2023/05/08 05:25:40;;;;;;;8.68;5.10;;;;;;;14.19;79.90;64448.09;5050492;28;20186;-59
2023/05/08 05:28:06;;;;;;;6.82;4.82;;;;;;;14.19;80.47;64450.66;5050253;28;20296;-55
2023/05/08 05:30:31;;;;;;;7.80;4.78;;;;;;;14.14;80.28;64445.13;5050435;28;20210;-59
2023/05/08 05:32:56;;;;;;;7.63;5.53;;;;;;;14.04;81.51;64433.59;5053835;28;20582;-59
2023/05/08 05:35:22;;;;;;;7.97;5.10;;;;;;;14.19;81.29;64450.09;5054026;28;20220;-55
2023/05/08 05:37:47;;;;;;;9.32;5.32;;;;;;;14.23;80.81;64455.03;5053945;28;20193;-56
2023/05/08 05:40:14;;;;;;;10.02;5.40;;;;;;;14.35;80.96;64465.16;5053988;28;20570;-59
2023/05/08 05:42:39;;;;;;;5.70;4.88;;;;;;;14.38;80.39;64465.38;5053503;28;20197;-57
2023/05/08 05:45:05;;;;;;;7.95;5.63;;;;;;;14.64;79.71;64497.03;5054058;28;20243;-59
2023/05/08 05:47:30;;;;;;;6.68;4.93;;;;;;;14.61;80.24;64495.69;5053603;28;20682;-57
2023/05/08 05:50:15;;;;;;;7.45;5.50;;;;;;;14.77;78.59;64511.31;5053778;28;20702;-60
2023/05/08 05:52:40;;;;;;;8.35;5.00;;;;;;;14.91;77.32;64526.69;5053606;28;20243;-60
2023/05/08 05:55:06;;;;;;;7.78;5.18;;;;;;;15.01;76.97;64534.59;5053411;28;20603;-57
2023/05/08 05:57:31;;;;;;;7.55;5.03;;;;;;;15.14;76.38;64548.91;5053508;28;20566;-57
2023/05/08 05:59:58;;;;;;;7.95;5.22;;;;;;;15.04;76.17;64542.97;5053822;28;20293;-58
2023/05/08 06:02:24;;;;;;;6.32;4.75;;;;;;;15.06;75.44;64542.63;5053578;28;20189;-58
2023/05/08 06:04:50;;;;;;;13.18;6.30;;;;;;;15.07;75.59;64544.28;5053629;28;20760;-57
2023/05/08 06:07:16;;;;;;;9.38;5.85;;;;;;;15.23;75.35;64561.31;5053439;28;20189;-58
2023/05/08 06:09:41;;;;;;;10.38;5.47;;;;;;;15.52;74.48;64592.69;5053372;28;20510;-55
2023/05/08 06:12:07;;;;;;;7.65;5.63;;;;;;;15.48;74.20;64590.84;5053122;28;20209;-58
2023/05/08 06:14:33;;;;;;;13.77;6.32;;;;;;;15.56;73.63;64597.09;5053273;28;20233;-57
2023/05/08 06:16:58;;;;;;;6.60;5.15;;;;;;;15.76;73.88;64619.09;5053295;28;20209;-56
2023/05/08 06:19:25;;;;;;;9.23;5.57;;;;;;;15.67;73.54;64609.75;5053484;28;20206;-57
2023/05/08 06:21:50;;;;;;;8.63;5.07;;;;;;;15.80;73.11;64623.50;5052984;28;20264;-60
2023/05/08 06:24:16;;;;;;;5.60;4.80;;;;;;;15.98;73.70;64642.75;5053309;28;20303;-56
2023/05/08 06:26:41;;;;;;;6.60;5.60;;;;;;;16.11;72.65;64660.16;5035197;28;20651;-56
2023/05/08 06:29:07;;;;;;;7.03;4.40;;;;;;;16.18;72.23;64667.84;5053250;28;20558;-59
2023/05/08 06:31:32;;;;;;;8.18;4.95;;;;;;;16.05;73.39;64651.00;5052881;28;20304;-59
2023/05/08 06:33:58;;;;;;;6.50;4.78;;;;;;;15.91;73.55;64635.59;5052825;28;20710;-58
2023/05/08 06:36:23;;;;;;;6.90;4.60;;;;;;;15.91;73.40;64636.16;5052967;28;20184;-58
2023/05/08 06:38:48;;;;;;;8.27;4.18;;;;;;;16.31;71.89;64676.53;5052848;28;20267;-57
2023/05/08 06:41:14;;;;;;;7.88;4.30;;;;;;;16.49;71.06;64699.47;5052814;28;20184;-58
2023/05/08 06:43:39;;;;;;;6.38;4.32;;;;;;;16.64;68.46;64712.88;5052753;28;20220;-59
2023/05/08 06:46:05;;;;;;;8.82;4.65;;;;;;;16.55;69.55;64708.06;5052772;28;20181;-58
2023/05/08 06:48:30;;;;;;;8.20;4.47;;;;;;;16.52;69.40;64700.22;5052948;28;20213;-58
2023/05/08 06:50:56;;;;;;;8.13;4.22;;;;;;;16.63;69.99;64714.88;5034804;28;20304;-57
2023/05/08 06:53:21;;;;;;;8.80;4.63;;;;;;;16.87;70.31;64740.22;5052745;28;20220;-57
2023/05/08 06:55:46;;;;;;;7.40;5.03;;;;;;;17.07;69.38;64759.69;5052777;28;20652;-58
2023/05/08 06:58:12;;;;;;;7.68;5.35;;;;;;;17.27;69.20;64784.81;5052485;28;20736;-58
2023/05/08 07:00:37;;;;;;;10.35;6.43;;;;;;;17.07;70.00;64759.69;5052632;28;20197;-60
2023/05/08 07:03:03;;;;;;;9.10;5.78;;;;;;;17.19;68.79;64775.47;5052422;28;20216;-63
2023/05/08 07:05:28;;;;;;;8.55;5.30;;;;;;;17.24;69.22;64778.41;5052449;28;20196;-58
2023/05/08 07:07:54;;;;;;;6.85;5.20;;;;;;;17.80;66.59;64842.69;5018152;28;20181;-58
2023/05/08 07:10:21;;;;;;;12.63;5.40;;;;;;;17.84;65.04;64844.56;5052509;28;20756;-55
2023/05/08 07:12:50;;;;;;;8.02;5.07;;;;;;;17.72;65.63;64830.78;5034235;28;20185;-57
2023/05/08 07:15:15;;;;;;;11.80;5.38;;;;;;;17.44;67.21;64798.44;5034334;28;20570;-58
2023/05/08 07:17:41;;;;;;;8.32;5.25;;;;;;;17.50;66.48;64812.19;5052051;28;20264;-58
2023/05/08 07:20:07;;;;;;;10.15;4.93;;;;;;;17.52;66.44;64812.38;5052260;28;20185;-56
2023/05/08 07:22:33;;;;;;;8.80;5.82;;;;;;;17.54;66.72;64814.59;5051821;28;20706;-57
2023/05/08 07:24:59;;;;;;;8.88;5.05;;;;;;;17.66;64.70;64824.16;5051731;28;20320;-56
2023/05/08 07:27:24;;;;;;;9.23;5.45;;;;;;;17.94;65.96;64855.03;5034117;28;20199;-56
2023/05/08 07:29:50;;;;;;;6.82;4.53;;;;;;;18.09;65.99;64871.56;5052361;28;20212;-57
2023/05/08 07:32:15;;;;;;;7.18;5.35;;;;;;;18.30;63.44;64892.19;5052013;28;20586;-58
2023/05/08 07:34:40;;;;;;;10.40;6.00;;;;;;;17.94;64.17;64857.56;5052151;28;20255;-56
2023/05/08 07:37:06;;;;;;;8.25;5.47;;;;;;;17.55;64.08;64812.59;5051803;28;20190;-56
2023/05/08 07:39:31;;;;;;;13.82;5.45;;;;;;;17.73;64.23;64832.44;5051906;28;20280;-56
2023/05/08 07:41:57;;;;;;;10.13;6.18;;;;;;;17.91;64.29;64852.28;5051781;28;20197;-56
2023/05/08 07:44:23;;;;;;;11.55;6.63;;;;;;;18.16;63.57;64882.38;5051923;28;20228;-56
2023/05/08 07:46:48;;;;;;;9.55;6.13;;;;;;;18.53;61.90;64919.56;5051754;28;20197;-57
2023/05/08 07:49:13;;;;;;;10.40;6.40;;;;;;;18.93;61.38;64963.69;5052033;28;20202;-56
2023/05/08 07:51:39;;;;;;;11.20;5.30;;;;;;;19.02;61.04;64976.19;5051614;28;20675;-55
2023/05/08 07:54:04;;;;;;;11.20;6.20;;;;;;;19.09;59.92;64981.91;5051127;28;20201;-60
2023/05/08 07:56:30;;;;;;;10.60;6.63;;;;;;;19.26;60.58;64998.13;5051572;28;20277;-60
2023/05/08 07:58:56;;;;;;;10.10;5.68;;;;;;;19.19;60.56;64994.94;5051687;28;20288;-61
2023/05/08 08:01:21;;;;;;;11.27;6.22;;;;;;;18.78;59.56;64949.69;5051553;28;20189;-56
2023/05/08 08:03:47;;;;;;;13.15;8.65;;;;;;;18.70;60.10;64938.31;5051516;28;20256;-57
2023/05/08 08:06:13;;;;;;;15.05;6.40;;;;;;;18.69;62.55;64942.88;5051527;28;20185;-56
2023/05/08 08:08:38;;;;;;;9.30;6.07;;;;;;;19.22;59.83;64995.69;5051363;28;20288;-59
2023/05/08 08:11:05;;;;;;;10.27;5.93;;;;;;;19.86;57.07;65066.38;5051392;28;20301;-56
2023/05/08 08:13:31;;;;;;;9.65;5.72;;;;;;;20.25;57.33;65108.38;5051431;28;20217;-56
2023/05/08 08:15:57;;;;;;;9.38;5.15;;;;;;;20.48;57.79;65133.81;5051400;28;20265;-56
2023/05/08 08:18:23;;;;;;;13.10;6.40;;;;;;;19.43;54.58;65018.34;5051341;28;20217;-57
2023/05/08 08:20:48;;;;;;;9.48;6.35;;;;;;;19.19;57.71;64994.94;5033058;28;20182;-57
2023/05/08 08:23:13;;;;;;;13.27;6.55;;;;;;;19.43;58.48;65018.34;5033285;28;20292;-57
2023/05/08 08:25:39;;;;;;;7.78;5.13;;;;;;;19.08;56.18;64982.81;5033442;28;20221;-58
2023/05/08 08:28:04;;;;;;;9.00;6.00;;;;;;;19.53;57.24;65029.41;5051232;28;20271;-58
2023/05/08 08:30:30;;;;;;;6.45;5.07;;;;;;;20.26;54.03;65109.50;5050867;28;20589;-59
2023/05/08 08:32:55;;;;;;;9.40;5.97;;;;;;;20.38;53.77;65122.75;5050783;28;20190;-58
2023/05/08 08:35:27;;;;;;;8.73;4.88;;;;;;;20.33;53.36;65112.09;5050909;28;20235;-59
2023/05/08 08:37:53;;;;;;;11.27;5.10;;;;;;;20.17;54.19;65097.50;5050983;28;20177;-57
2023/05/08 08:40:18;;;;;;;12.45;6.20;;;;;;;19.85;54.88;65065.28;5050868;28;20566;-59
2023/05/08 08:42:44;;;;;;;6.32;4.78;;;;;;;19.80;56.79;65062.31;5050835;28;20209;-56
2023/05/08 08:45:10;;;;;;;10.75;5.55;;;;;;;19.98;55.19;65079.63;5050565;28;20272;-58
2023/05/08 08:47:36;;;;;;;5.70;4.45;;;;;;;20.10;55.67;65092.34;5050742;28;20269;-58
2023/05/08 08:50:03;;;;;;;6.45;4.57;;;;;;;19.47;56.53;65022.78;5050525;28;20568;-58
2023/05/08 08:52:37;;;;;;;8.77;4.88;;;;;;;19.53;56.56;65031.94;5050559;28;20243;-58
2023/05/08 08:55:06;;;;;;;6.28;4.70;;;;;;;19.59;56.90;65038.56;5050770;28;20615;-57
2023/05/08 08:57:35;;;;;;;8.52;4.65;;;;;;;19.75;57.39;65053.69;5050794;28;20181;-61
2023/05/08 09:00:04;;;;;;;6.03;4.30;;;;;;;19.47;58.68;65020.22;5050863;28;20694;-65
2023/05/08 09:02:30;;;;;;;7.15;4.78;;;;;;;19.74;57.53;65052.56;5033349;28;20194;-58
2023/05/08 09:04:57;;;;;;;7.13;4.75;;;;;;;20.06;57.82;65087.91;5050542;28;20217;-59
2023/05/08 09:07:23;;;;;;;6.20;4.90;;;;;;;20.03;56.41;65087.72;5050248;28;20185;-59
2023/05/08 09:09:49;;;;;;;6.78;4.80;;;;;;;20.17;57.11;65099.50;5050375;28;20205;-59
2023/05/08 09:12:15;;;;;;;12.00;5.47;;;;;;;19.82;59.05;65061.97;5050257;28;20216;-59
2023/05/08 09:14:41;;;;;;;10.35;5.38;;;;;;;19.63;59.91;65041.00;5050213;28;20217;-57
2023/05/08 09:17:06;;;;;;;10.23;4.40;;;;;;;19.75;59.78;65056.81;5050646;28;20217;-58
2023/05/08 09:19:32;;;;;;;8.32;5.38;;;;;;;19.80;59.94;65057.19;5050729;28;20262;-56
2023/05/08 09:22:03;;;;;;;9.57;4.80;;;;;;;19.66;61.12;65044.28;5050259;28;20659;-56
2023/05/08 09:24:57;;;;;;;8.40;4.80;;;;;;;19.55;61.08;65032.16;5050596;28;20267;-57
2023/05/08 09:27:25;;;;;;;7.95;4.57;;;;;;;19.56;61.31;65030.69;5050149;28;20209;-57
2023/05/08 09:30:03;;;;;;;4.88;4.30;;;;;;;19.78;60.76;65057.53;5050292;28;20212;-55
2023/05/08 09:32:29;;;;;;;7.03;4.20;;;;;;;19.78;62.64;65059.53;5032415;28;20232;-57
2023/05/08 09:34:56;;;;;;;9.73;4.88;;;;;;;19.52;61.84;65026.28;5050048;28;20213;-60
2023/05/08 09:37:22;;;;;;;10.30;5.00;;;;;;;19.58;61.11;65034.91;5032166;28;20708;-60
2023/05/08 09:39:48;;;;;;;8.18;4.30;;;;;;;19.66;61.76;65046.84;5050161;28;20280;-58
2023/05/08 09:42:14;;;;;;;7.03;4.93;;;;;;;19.64;61.21;65042.09;5050165;28;20193;-57
2023/05/08 09:44:49;;;;;;;8.05;5.20;;;;;;;19.75;61.00;65053.69;5050611;28;20209;-55
2023/05/08 09:47:17;;;;;;;15.23;6.97;;;;;;;19.81;61.65;65060.88;5050036;28;20193;-58
2023/05/08 09:50:00;;;;;;;11.50;5.07;;;;;;;19.84;60.79;65063.63;5050428;28;20213;-58
2023/05/08 09:52:30;;;;;;;6.20;4.60;;;;;;;20.03;60.81;65085.16;5050260;28;20623;-59
2023/05/08 09:55:09;;;;;;;9.57;4.60;;;;;;;20.14;60.06;65093.66;5074474;22;20291;-59
2023/05/08 09:57:50;;;;;;;6.78;4.60;;;;;;;20.43;59.93;65126.25;5070083;28;20187;-58
2023/05/08 10:00:16;;;;;;;10.55;4.88;;;;;;;20.82;58.14;65171.94;5050049;28;20280;-57
2023/05/08 10:03:03;;;;;;;7.93;4.50;;;;;;;21.10;58.77;65202.34;5049647;28;20715;-56
2023/05/08 10:05:35;;;;;;;7.93;5.22;;;;;;;21.02;59.42;65190.94;5050570;28;20201;-56
2023/05/08 10:08:20;;;;;;;8.77;4.53;;;;;;;21.08;57.95;65200.13;5049860;28;20624;-56
2023/05/08 10:10:46;;;;;;;9.52;4.97;;;;;;;21.11;58.09;65205.47;5049768;28;20213;-57
2023/05/08 10:13:12;;;;;;;7.00;4.03;;;;;;;21.39;57.43;65236.44;5049876;28;20300;-57
2023/05/08 10:15:41;;;;;;;10.05;4.60;;;;;;;21.77;56.53;65276.44;5049681;28;20189;-57
2023/05/08 10:18:07;;;;;;;8.02;5.10;;;;;;;20.97;56.14;65187.41;5051848;28;20198;-58
2023/05/08 10:20:35;;;;;;;8.80;5.40;;;;;;;20.36;57.58;65120.53;5053435;28;20196;-58
2023/05/08 10:23:02;;;;;;;7.05;4.18;;;;;;;20.29;57.93;65110.22;5035048;28;20694;-57
2023/05/08 10:25:32;;;;;;;6.57;4.45;;;;;;;20.73;57.26;65164.53;5053208;28;20197;-57
2023/05/08 10:28:36;;;;;;;15.27;6.22;;;;;;;20.55;58.28;65141.53;5052891;28;20639;-58
2023/05/08 10:31:04;;;;;;;9.63;4.72;;;;;;;20.70;58.25;65156.09;5052918;28;20250;-57
2023/05/08 10:33:30;;;;;;;11.35;5.65;;;;;;;20.71;57.48;65156.66;5052784;28;20205;-57
2023/05/08 10:35:56;;;;;;;8.75;4.60;;;;;;;20.76;57.68;65165.31;5052745;28;20201;-57
2023/05/08 10:38:22;;;;;;;7.75;4.95;;;;;;;21.14;57.98;65204.22;5052910;28;20575;-57
2023/05/08 10:40:49;;;;;;;6.15;3.90;;;;;;;21.10;57.63;65204.91;5052879;28;20192;-56
2023/05/08 10:43:16;;;;;;;4.50;4.07;;;;;;;21.28;58.06;65222.25;5052639;28;20217;-58
2023/05/08 10:45:42;;;;;;;8.05;4.95;;;;;;;21.97;55.55;65292.91;5052764;28;20189;-62
2023/05/08 10:48:15;;;;;;;6.20;5.20;;;;;;;22.05;56.72;65306.91;5052644;28;20221;-60
2023/05/08 10:50:59;;;;;;;6.10;4.68;;;;;;;21.82;54.74;65280.88;5052476;28;20591;-57
2023/05/08 10:53:28;;;;;;;7.97;4.40;;;;;;;22.18;53.55;65320.75;5052719;28;20228;-57
2023/05/08 10:55:54;;;;;;;7.28;4.25;;;;;;;22.77;52.61;65388.09;5052428;28;20220;-57
2023/05/08 10:58:30;;;;;;;6.28;4.85;;;;;;;22.85;53.73;65392.34;5052594;28;20209;-56
2023/05/08 11:00:58;;;;;;;6.20;4.50;;;;;;;22.30;52.71;65332.00;5052639;28;20173;-56
2023/05/08 11:03:44;;;;;;;7.82;4.40;;;;;;;22.10;54.37;65311.88;5052244;28;20355;-58
2023/05/08 11:06:10;;;;;;;8.98;5.05;;;;;;;22.22;54.23;65325.16;5051725;28;20641;-59
2023/05/08 11:08:50;;;;;;;8.90;5.05;;;;;;;22.48;54.86;65351.91;5052383;28;20370;-56
2023/05/08 11:11:32;;;;;;;6.38;4.78;;;;;;;22.24;53.04;65324.81;5052413;28;20214;-56
2023/05/08 11:14:07;;;;;;;4.95;4.53;;;;;;;22.82;52.44;65389.06;5052444;28;20217;-57
2023/05/08 11:16:55;;;;;;;6.63;5.15;;;;;;;23.21;51.95;65432.22;5052176;28;20242;-58
2023/05/08 11:19:22;;;;;;;7.90;5.00;;;;;;;23.23;50.49;65439.06;5052915;28;20225;-57
2023/05/08 11:22:12;;;;;;;9.75;4.63;;;;;;;22.92;53.24;65400.13;5052100;28;20217;-57
2023/05/08 11:25:19;;;;;;;7.30;4.47;;;;;;;23.10;52.34;65422.63;5052012;28;20259;-59
2023/05/08 11:27:48;;;;;;;6.65;4.57;;;;;;;22.94;52.24;65399.75;5034540;28;20316;-56
2023/05/08 11:30:19;;;;;;;6.03;4.07;;;;;;;23.04;50.51;65413.41;5050844;28;20259;-58
2023/05/08 11:33:03;;;;;;;4.50;4.10;;;;;;;23.31;50.31;65442.78;5051797;28;20193;-57
2023/05/08 11:35:42;;;;;;;7.50;4.78;;;;;;;24.37;48.09;65562.31;5052157;28;20554;-60
2023/05/08 11:38:15;;;;;;;6.90;5.90;;;;;;;25.31;49.07;65666.06;5051870;28;20220;-58
2023/05/08 11:40:47;;;;;;;6.38;4.90;;;;;;;25.50;47.26;65684.03;5052198;28;20593;-60